Time;durP1;ratioP1;P1;durP2;ratioP2;P2;SDS_P1;SDS_P2;PMS_P1;PMS_P2;Temp;Humidity;BMP_temperature;BMP_pressure;BME280_temperature;BME280_humidity;BME280_pressure;Samples;Min_cycle;Max_cycle;Signal;HPM_P1;HPM_P2
2024/03/21 00:01:41;;;;;;;13.20;7.20;;;6.60;99.90;;;;;;5107232;28;20028;-51
2024/03/21 00:04:06;;;;;;;11.43;6.95;;;6.60;99.90;;;;;;5107765;28;20036;-51
2024/03/21 00:06:32;;;;;;;13.95;7.72;;;6.70;99.90;;;;;;5107548;28;20281;-49
2024/03/21 00:08:57;;;;;;;14.88;7.13;;;6.70;99.90;;;;;;5107357;28;20028;-49
2024/03/21 00:11:23;;;;;;;15.32;7.57;;;6.60;99.90;;;;;;5107556;28;20292;-49
2024/03/21 00:13:49;;;;;;;12.45;7.10;;;6.70;99.90;;;;;;5107411;28;20177;-48
2024/03/21 00:16:14;;;;;;;16.08;8.25;;;6.70;99.90;;;;;;5107004;28;20099;-50
2024/03/21 00:18:42;;;;;;;14.48;7.43;;;6.70;99.90;;;;;;5107421;28;20281;-51
2024/03/21 00:21:07;;;;;;;13.75;7.93;;;6.70;99.90;;;;;;5107325;28;20277;-50
2024/03/21 00:23:33;;;;;;;16.33;7.57;;;6.60;99.90;;;;;;5089576;28;20028;-50
2024/03/21 00:26:01;;;;;;;15.27;8.45;;;6.70;99.90;;;;;;5094798;28;20187;-51
2024/03/21 00:28:28;;;;;;;19.00;8.80;;;6.60;99.90;;;;;;5086761;28;20037;-50
2024/03/21 00:30:56;;;;;;;18.75;8.70;;;6.50;99.90;;;;;;5086027;28;20067;-51
2024/03/21 00:33:22;;;;;;;17.52;8.40;;;6.30;99.90;;;;;;5086722;28;20017;-50
2024/03/21 00:35:48;;;;;;;15.75;8.27;;;6.30;99.90;;;;;;5069149;28;20029;-51
2024/03/21 00:38:13;;;;;;;18.88;8.80;;;6.40;99.90;;;;;;5086397;28;20281;-51
2024/03/21 00:40:39;;;;;;;19.63;8.07;;;6.40;99.90;;;;;;5086613;28;20309;-51
2024/03/21 00:43:04;;;;;;;19.50;8.57;;;6.30;99.90;;;;;;5086459;28;20039;-51
2024/03/21 00:45:30;;;;;;;16.98;7.88;;;6.30;99.90;;;;;;5086483;28;20070;-47
2024/03/21 00:48:14;;;;;;;17.52;8.23;;;6.40;99.90;;;;;;5086512;28;20028;-50
2024/03/21 00:50:39;;;;;;;13.95;7.03;;;6.50;99.90;;;;;;5086483;28;20075;-48
2024/03/21 00:53:06;;;;;;;19.48;8.65;;;6.20;99.90;;;;;;5086265;28;20245;-51
2024/03/21 00:55:31;;;;;;;18.35;8.40;;;6.20;99.90;;;;;;5086420;28;20070;-48
2024/03/21 00:57:57;;;;;;;25.33;9.85;;;6.30;99.90;;;;;;5086608;28;20024;-51
2024/03/21 01:00:23;;;;;;;25.92;9.43;;;6.40;99.90;;;;;;5086219;28;20278;-50
2024/03/21 01:02:48;;;;;;;25.65;10.68;;;6.40;99.90;;;;;;5085766;28;20202;-51
2024/03/21 01:05:18;;;;;;;24.92;9.70;;;6.50;99.90;;;;;;5086180;28;20028;-50
2024/03/21 01:07:46;;;;;;;;;;;6.50;99.90;;;;;;5086665;28;20043;-50
2024/03/21 01:10:11;;;;;;;50.05;11.13;;;6.30;99.90;;;;;;5085811;28;20638;-50
2024/03/21 01:12:37;;;;;;;55.72;13.02;;;6.30;99.90;;;;;;5068173;28;20033;-51
2024/03/21 01:15:03;;;;;;;41.67;12.02;;;6.30;99.90;;;;;;5085817;28;20040;-51
2024/03/21 01:17:29;;;;;;;65.10;11.52;;;6.40;99.90;;;;;;5086018;28;20351;-50
2024/03/21 01:19:55;;;;;;;70.68;11.73;;;6.40;99.90;;;;;;5086015;28;20036;-51
2024/03/21 01:22:20;;;;;;;77.25;11.88;;;6.40;99.90;;;;;;5085875;28;20039;-52
2024/03/21 01:24:46;;;;;;;58.92;12.35;;;6.40;99.90;;;;;;5087472;28;20028;-52
2024/03/21 01:27:12;;;;;;;66.93;11.43;;;6.30;99.90;;;;;;5106119;28;20042;-47
2024/03/21 01:29:38;;;;;;;105.15;12.63;;;6.20;99.90;;;;;;5106115;28;20036;-47
2024/03/21 01:32:04;;;;;;;111.30;13.18;;;6.20;99.90;;;;;;5106302;28;20027;-47
2024/03/21 01:34:30;;;;;;;92.30;12.07;;;6.10;99.90;;;;;;5105748;28;20016;-51
2024/03/21 01:36:57;;;;;;;73.78;11.57;;;6.10;99.90;;;;;;5088008;28;20047;-51
2024/03/21 01:39:23;;;;;;;70.22;10.82;;;6.00;99.90;;;;;;5105510;28;20031;-51
2024/03/21 01:41:49;;;;;;;60.42;10.70;;;6.10;99.90;;;;;;5105900;28;20020;-51
2024/03/21 01:44:16;;;;;;;134.95;13.88;;;6.10;99.90;;;;;;5104876;28;20091;-50
2024/03/21 01:46:42;;;;;;;58.85;9.60;;;6.10;99.90;;;;;;5109142;28;20050;-48
2024/03/21 01:49:09;;;;;;;93.10;12.45;;;6.10;99.90;;;;;;5109664;28;20084;-48
2024/03/21 01:51:35;;;;;;;54.05;10.30;;;6.10;99.90;;;;;;5091970;28;20078;-49
2024/03/21 01:54:01;;;;;;;48.22;10.68;;;6.30;99.90;;;;;;5109487;28;20023;-46
2024/03/21 01:56:26;;;;;;;44.65;11.30;;;6.30;99.90;;;;;;5091297;28;20055;-46
2024/03/21 01:58:52;;;;;;;33.75;9.32;;;6.30;99.90;;;;;;5108674;28;20036;-47
2024/03/21 02:01:28;;;;;;;124.85;14.35;;;6.10;99.90;;;;;;5108821;28;20039;-47
2024/03/21 02:03:56;;;;;;;68.20;10.85;;;5.80;99.90;;;;;;5108961;28;20043;-48
2024/03/21 02:06:25;;;;;;;70.82;11.40;;;6.00;99.90;;;;;;5106185;28;20027;-48
2024/03/21 02:08:54;;;;;;;68.85;12.25;;;6.10;99.90;;;;;;5105731;28;20181;-47
2024/03/21 02:11:23;;;;;;;89.78;12.32;;;6.00;99.90;;;;;;5087800;28;20055;-49
2024/03/21 02:13:51;;;;;;;77.00;11.20;;;6.10;99.90;;;;;;5087743;28;20043;-50
2024/03/21 02:16:17;;;;;;;40.15;9.80;;;6.00;99.90;;;;;;5105430;28;20143;-47
2024/03/21 02:18:42;;;;;;;49.20;9.95;;;6.00;99.90;;;;;;5088115;28;20338;-49
2024/03/21 02:23:52;;;;;;;43.30;9.75;;;6.10;99.90;;;;;;5105673;28;20034;-47
2024/03/21 02:26:18;;;;;;;49.13;10.15;;;6.00;99.90;;;;;;5105189;28;20036;-50
2024/03/21 02:28:44;;;;;;;46.97;10.30;;;6.10;99.90;;;;;;5105486;28;20050;-50
2024/03/21 02:31:09;;;;;;;27.98;9.15;;;6.10;99.90;;;;;;5105645;28;20027;-49
2024/03/21 02:33:35;;;;;;;42.42;10.05;;;6.20;99.90;;;;;;5105532;28;20028;-49
2024/03/21 02:36:01;;;;;;;23.85;9.02;;;6.00;99.90;;;;;;5105612;28;20266;-48
2024/03/21 02:38:26;;;;;;;20.33;8.40;;;6.10;99.90;;;;;;5105466;28;20084;-49
2024/03/21 02:40:52;;;;;;;19.90;9.48;;;6.20;99.90;;;;;;5090164;28;20043;-47
2024/03/21 02:43:17;;;;;;;17.23;9.38;;;6.00;99.90;;;;;;5106636;28;20075;-48
2024/03/21 02:45:43;;;;;;;17.27;9.02;;;6.10;99.90;;;;;;5089261;28;20305;-47
2024/03/21 02:48:09;;;;;;;16.58;8.90;;;6.20;99.90;;;;;;5107281;28;20039;-53
2024/03/21 02:50:35;;;;;;;16.70;8.95;;;6.40;99.90;;;;;;5105646;28;20019;-49
2024/03/21 02:53:02;;;;;;;14.35;8.48;;;6.50;99.90;;;;;;5106035;28;20020;-47
2024/03/21 02:55:28;;;;;;;14.77;8.30;;;6.30;99.90;;;;;;5108118;28;20163;-49
2024/03/21 02:57:54;;;;;;;15.38;7.80;;;6.20;99.90;;;;;;5109660;28;20020;-48
2024/03/21 03:00:19;;;;;;;18.08;8.82;;;6.20;99.90;;;;;;5090955;28;20028;-51
2024/03/21 03:02:45;;;;;;;16.25;8.15;;;6.50;99.90;;;;;;5108642;28;20036;-50
2024/03/21 03:05:13;;;;;;;15.75;8.38;;;6.50;99.90;;;;;;5108818;28;20277;-50
2024/03/21 03:07:38;;;;;;;17.33;8.70;;;6.60;99.90;;;;;;5108928;28;20024;-47
2024/03/21 03:10:04;;;;;;;15.70;8.73;;;6.60;99.90;;;;;;5090893;28;20035;-49
2024/03/21 03:12:31;;;;;;;17.48;8.13;;;6.60;99.90;;;;;;5108899;28;20030;-50
2024/03/21 03:14:56;;;;;;;15.80;8.30;;;6.60;99.90;;;;;;5108628;28;20016;-50
2024/03/21 03:17:22;;;;;;;16.77;7.93;;;6.70;99.90;;;;;;5108552;28;20028;-49
2024/03/21 03:19:48;;;;;;;17.70;7.97;;;6.80;99.90;;;;;;5108564;28;20055;-52
2024/03/21 03:22:13;;;;;;;16.92;8.40;;;6.80;99.90;;;;;;5108304;28;20023;-50
2024/03/21 03:24:39;;;;;;;17.75;7.65;;;6.90;99.90;;;;;;5108372;28;20042;-47
2024/03/21 03:27:05;;;;;;;14.98;7.47;;;7.00;99.90;;;;;;5108053;28;20091;-50
2024/03/21 03:29:30;;;;;;;13.07;6.93;;;7.10;99.90;;;;;;5107984;28;20028;-50
2024/03/21 03:32:01;;;;;;;15.30;6.95;;;7.20;99.90;;;;;;5108394;28;20297;-49
2024/03/21 03:37:12;;;;;;;13.10;6.95;;;7.30;99.90;;;;;;5108356;28;20088;-49
2024/03/21 03:39:38;;;;;;;13.65;6.65;;;7.40;99.90;;;;;;5108296;28;20200;-48
2024/03/21 03:42:03;;;;;;;14.65;6.45;;;7.40;99.90;;;;;;5108142;28;20040;-50
2024/03/21 03:44:29;;;;;;;16.17;6.45;;;7.50;99.90;;;;;;5108237;28;20008;-47
2024/03/21 03:46:55;;;;;;;15.05;7.03;;;7.50;99.90;;;;;;5107978;28;20032;-49
2024/03/21 03:49:20;;;;;;;14.05;6.57;;;7.50;99.90;;;;;;5107971;28;20031;-47
2024/03/21 03:51:46;;;;;;;12.38;6.38;;;7.50;99.90;;;;;;5110656;28;20024;-47
2024/03/21 03:54:12;;;;;;;12.50;6.53;;;7.50;99.90;;;;;;5109294;28;20054;-50
2024/03/21 03:56:38;;;;;;;12.40;6.38;;;7.50;99.90;;;;;;5107726;28;20212;-50
2024/03/21 03:59:03;;;;;;;13.68;6.60;;;7.60;99.90;;;;;;5110332;28;20024;-47
2024/03/21 04:01:29;;;;;;;13.57;6.72;;;7.60;99.90;;;;;;5108181;28;20081;-49
2024/03/21 04:03:55;;;;;;;17.13;6.95;;;7.60;99.90;;;;;;5108936;28;20182;-47
2024/03/21 04:06:20;;;;;;;11.80;6.07;;;7.70;99.90;;;;;;5110573;28;20028;-48
2024/03/21 04:08:46;;;;;;;13.57;6.18;;;7.70;99.90;;;;;;5107944;28;20040;-51
2024/03/21 04:11:15;;;;;;;11.40;5.75;;;7.70;99.90;;;;;;5107622;28;20020;-51
2024/03/21 04:13:41;;;;;;;12.73;6.13;;;7.70;99.90;;;;;;5089740;28;20207;-49
2024/03/21 04:16:12;;;;;;;15.82;6.68;;;7.70;99.90;;;;;;5107396;28;20067;-49
2024/03/21 04:18:38;;;;;;;16.48;6.70;;;7.80;99.90;;;;;;5089288;28;20016;-49
2024/03/21 04:21:04;;;;;;;14.18;6.90;;;7.80;99.90;;;;;;5107231;28;20058;-51
2024/03/21 04:23:30;;;;;;;12.40;6.18;;;7.80;99.90;;;;;;5107165;28;20051;-47
2024/03/21 04:25:55;;;;;;;12.65;6.75;;;7.80;99.90;;;;;;5088858;28;20054;-49
2024/03/21 04:28:21;;;;;;;12.32;7.25;;;7.80;99.90;;;;;;5089028;28;20062;-46
2024/03/21 04:30:46;;;;;;;15.15;7.53;;;7.90;99.90;;;;;;5106649;28;20032;-49
2024/03/21 04:33:13;;;;;;;15.00;6.95;;;8.00;99.90;;;;;;5106562;28;20020;-50
2024/03/21 04:35:39;;;;;;;15.55;7.45;;;8.10;99.90;;;;;;5106569;28;20226;-50
2024/03/21 04:38:07;;;;;;;14.07;7.00;;;8.10;99.90;;;;;;5106924;28;20095;-50
2024/03/21 04:40:33;;;;;;;14.68;7.50;;;8.10;99.90;;;;;;5088769;28;20081;-48
2024/03/21 04:42:59;;;;;;;18.17;7.25;;;8.20;99.90;;;;;;5106742;28;20020;-47
2024/03/21 04:45:24;;;;;;;18.40;7.60;;;8.30;99.90;;;;;;5106652;28;20038;-47
2024/03/21 04:47:51;;;;;;;18.58;8.60;;;8.40;99.90;;;;;;5106698;28;20035;-47
2024/03/21 04:50:18;;;;;;;18.13;8.43;;;8.50;99.90;;;;;;5106473;28;20177;-47
2024/03/21 04:52:44;;;;;;;14.20;7.88;;;8.50;99.90;;;;;;5106421;28;20020;-47
2024/03/21 04:55:10;;;;;;;21.83;8.70;;;8.50;99.90;;;;;;5106527;28;20224;-47
2024/03/21 04:57:35;;;;;;;18.70;9.63;;;8.50;99.90;;;;;;5106617;28;20273;-50
2024/03/21 05:00:03;;;;;;;17.92;8.80;;;8.50;99.90;;;;;;5106662;28;20039;-50
2024/03/21 05:02:28;;;;;;;18.40;8.93;;;8.60;99.90;;;;;;5088861;28;20232;-50
2024/03/21 05:04:54;;;;;;;15.43;8.30;;;8.60;99.90;;;;;;5106362;28;20023;-48
2024/03/21 05:07:20;;;;;;;19.25;8.73;;;8.60;99.90;;;;;;5105834;28;20040;-50
2024/03/21 05:09:45;;;;;;;18.13;9.00;;;8.60;99.90;;;;;;5106255;28;20032;-48
2024/03/21 05:12:11;;;;;;;21.77;9.45;;;8.60;99.90;;;;;;5106408;28;20013;-47
2024/03/21 05:14:36;;;;;;;20.77;9.05;;;8.60;99.90;;;;;;5106178;28;20035;-49
2024/03/21 05:17:03;;;;;;;16.50;8.77;;;8.70;99.90;;;;;;5105865;28;20179;-48
2024/03/21 05:19:29;;;;;;;15.02;7.85;;;8.60;99.90;;;;;;5105529;28;20073;-50
2024/03/21 05:21:55;;;;;;;14.48;8.27;;;8.60;99.90;;;;;;5106088;28;20027;-47
2024/03/21 05:24:20;;;;;;;14.27;7.25;;;8.70;99.90;;;;;;5105877;28;20028;-47
2024/03/21 05:26:46;;;;;;;12.98;7.28;;;8.60;99.90;;;;;;5105666;28;20115;-49
2024/03/21 05:29:12;;;;;;;18.33;7.35;;;8.60;99.90;;;;;;5105861;28;20047;-47
2024/03/21 05:31:37;;;;;;;15.95;7.45;;;8.70;99.90;;;;;;5106051;28;20028;-48
2024/03/21 05:34:03;;;;;;;15.05;7.20;;;8.70;99.90;;;;;;5088143;28;20113;-49
2024/03/21 05:36:29;;;;;;;18.23;7.93;;;8.70;99.90;;;;;;5105754;28;20020;-48
2024/03/21 05:38:56;;;;;;;16.95;7.30;;;8.70;99.90;;;;;;5105840;28;20104;-47
2024/03/21 05:41:21;;;;;;;15.13;6.90;;;8.60;99.90;;;;;;5088063;28;20043;-50
2024/03/21 05:43:47;;;;;;;14.35;7.97;;;8.70;99.90;;;;;;5105900;28;20335;-45
2024/03/21 05:46:12;;;;;;;19.38;7.50;;;8.60;99.90;;;;;;5105483;28;20032;-49
2024/03/21 05:48:39;;;;;;;16.33;7.60;;;8.70;99.90;;;;;;5105476;28;20035;-47
2024/03/21 05:51:05;;;;;;;14.90;6.65;;;8.60;99.90;;;;;;5105328;28;20137;-50
2024/03/21 05:53:30;;;;;;;15.70;7.10;;;8.60;99.90;;;;;;5105495;28;20036;-47
2024/03/21 05:56:04;;;;;;;16.33;7.88;;;8.60;99.90;;;;;;5105671;28;20020;-47
2024/03/21 05:58:32;;;;;;;17.35;7.78;;;8.60;99.90;;;;;;5105660;28;20024;-47
2024/03/21 06:03:37;;;;;;;15.90;7.40;;;8.70;99.90;;;;;;5105788;28;20032;-47
2024/03/21 06:06:03;;;;;;;15.35;7.38;;;8.70;99.90;;;;;;5087873;28;20032;-49
2024/03/21 06:08:29;;;;;;;17.35;8.52;;;8.70;99.90;;;;;;5105290;28;20068;-50
2024/03/21 06:10:55;;;;;;;15.13;7.53;;;8.70;99.90;;;;;;5105524;28;20074;-50
2024/03/21 06:13:21;;;;;;;13.05;6.85;;;8.70;99.90;;;;;;5105457;28;20024;-46
2024/03/21 06:15:46;;;;;;;20.25;9.07;;;8.70;99.90;;;;;;5087597;28;20028;-50
2024/03/21 06:18:12;;;;;;;16.42;8.15;;;8.70;99.90;;;;;;5105093;28;20020;-51
2024/03/21 06:20:38;;;;;;;15.40;7.75;;;8.70;99.90;;;;;;5087743;28;20052;-50
2024/03/21 06:23:04;;;;;;;19.95;7.88;;;8.80;99.90;;;;;;5087839;28;20087;-49
2024/03/21 06:25:30;;;;;;;20.45;8.68;;;8.70;99.90;;;;;;5104625;28;20040;-47
2024/03/21 06:27:55;;;;;;;13.98;7.38;;;8.70;99.90;;;;;;5105285;28;20039;-47
2024/03/21 06:30:21;;;;;;;15.80;6.88;;;8.80;99.90;;;;;;5107698;28;20060;-47
2024/03/21 06:32:47;;;;;;;14.73;8.77;;;8.80;99.90;;;;;;5109154;28;20271;-47
2024/03/21 06:35:13;;;;;;;15.73;8.50;;;8.80;99.90;;;;;;5109206;28;20020;-48
2024/03/21 06:40:34;;;;;;;15.88;9.60;;;8.90;99.90;;;;;;5338532;23;20050;-76
2024/03/21 06:42:59;;;;;;;21.13;10.15;;;8.90;99.90;;;;;;4972643;28;20299;-75
2024/03/21 06:45:25;;;;;;;18.40;9.10;;;8.90;99.90;;;;;;4972484;28;20026;-75
2024/03/21 06:47:51;;;;;;;18.13;9.90;;;8.90;99.90;;;;;;4956379;28;20097;-74
2024/03/21 06:50:18;;;;;;;17.95;10.60;;;9.00;99.90;;;;;;4956590;28;20102;-76
2024/03/21 06:52:47;;;;;;;20.23;11.35;;;9.00;99.90;;;;;;4956326;28;20026;-75
2024/03/21 06:55:14;;;;;;;20.70;11.95;;;9.00;99.90;;;;;;4972598;28;20175;-75
2024/03/21 06:57:43;;;;;;;20.92;10.90;;;9.00;99.90;;;;;;4957308;28;20031;-76
2024/03/21 07:00:13;;;;;;;16.33;9.48;;;9.00;99.90;;;;;;4972837;28;20102;-75
2024/03/21 07:02:39;;;;;;;21.10;11.50;;;9.10;99.90;;;;;;4957476;28;20089;-75
2024/03/21 07:05:07;;;;;;;18.98;11.73;;;9.10;99.90;;;;;;4956531;28;20098;-75
2024/03/21 07:07:32;;;;;;;24.85;12.90;;;9.10;99.90;;;;;;4956741;28;20078;-76
2024/03/21 07:09:58;;;;;;;19.60;9.90;;;9.10;99.90;;;;;;4972494;28;20129;-72
2024/03/21 07:12:24;;;;;;;19.42;11.07;;;9.10;99.90;;;;;;4972474;28;20033;-75
2024/03/21 07:14:49;;;;;;;22.08;11.32;;;9.10;99.90;;;;;;4972114;28;20086;-75
2024/03/21 07:17:15;;;;;;;23.58;11.38;;;9.10;99.90;;;;;;4972199;28;20027;-76
2024/03/21 07:19:44;;;;;;;25.17;14.63;;;9.20;99.90;;;;;;4989394;28;20057;-75
2024/03/21 07:22:10;;;;;;;22.45;12.43;;;9.20;99.90;;;;;;4989170;28;20090;-75
2024/03/21 07:24:35;;;;;;;23.98;12.05;;;9.20;99.90;;;;;;4971792;28;20034;-76
2024/03/21 07:27:01;;;;;;;21.48;13.10;;;9.20;99.90;;;;;;4972023;28;20090;-75
2024/03/21 07:29:28;;;;;;;20.52;11.82;;;9.30;99.90;;;;;;4988777;28;20098;-76
2024/03/21 07:31:54;;;;;;;19.90;12.55;;;9.30;99.90;;;;;;4955744;28;20122;-75
2024/03/21 07:34:20;;;;;;;26.58;13.27;;;9.30;99.90;;;;;;4971705;28;20046;-75
2024/03/21 07:36:45;;;;;;;22.13;13.07;;;9.30;99.90;;;;;;4988682;28;20321;-76
2024/03/21 07:39:11;;;;;;;21.13;12.90;;;9.40;99.90;;;;;;4988501;28;20042;-75
2024/03/21 07:41:37;;;;;;;22.77;11.85;;;9.40;99.90;;;;;;4954838;28;20074;-75
2024/03/21 07:44:02;;;;;;;24.40;12.65;;;9.40;99.90;;;;;;4971639;28;20085;-77
2024/03/21 07:46:29;;;;;;;26.50;13.52;;;9.50;99.90;;;;;;4971530;28;20224;-77
2024/03/21 07:48:57;;;;;;;19.88;10.95;;;9.60;99.90;;;;;;4955103;28;20034;-75
2024/03/21 07:51:23;;;;;;;13.88;9.40;;;9.70;99.90;;;;;;4955148;28;20029;-76
2024/03/21 07:53:49;;;;;;;23.83;12.55;;;9.70;99.90;;;;;;4955466;28;20103;-76
2024/03/21 07:56:14;;;;;;;26.25;14.52;;;9.70;99.90;;;;;;4988119;28;20034;-77
2024/03/21 07:58:40;;;;;;;22.63;11.95;;;9.70;99.90;;;;;;4971285;28;20046;-76
2024/03/21 08:01:06;;;;;;;19.38;11.02;;;9.70;99.90;;;;;;4987966;28;20081;-76
2024/03/21 08:03:31;;;;;;;22.42;12.70;;;9.60;99.90;;;;;;4988232;28;20082;-77
2024/03/21 08:05:57;;;;;;;22.95;12.13;;;9.60;99.90;;;;;;4970818;28;20215;-77
2024/03/21 08:08:22;;;;;;;21.85;12.68;;;9.60;99.90;;;;;;4954530;28;20065;-76
2024/03/21 08:10:48;;;;;;;23.33;14.05;;;9.60;99.90;;;;;;4954743;28;20027;-76
2024/03/21 08:13:14;;;;;;;20.50;12.30;;;9.60;99.90;;;;;;4971015;28;20023;-76
2024/03/21 08:15:40;;;;;;;23.15;11.73;;;9.60;99.90;;;;;;4954965;28;20187;-77
2024/03/21 08:18:05;;;;;;;19.98;10.63;;;9.60;99.90;;;;;;4970919;28;20280;-77
2024/03/21 08:20:31;;;;;;;21.85;13.40;;;9.60;99.90;;;;;;4954900;28;20045;-76
2024/03/21 08:22:57;;;;;;;21.80;11.95;;;9.60;99.90;;;;;;4954707;28;20030;-77
2024/03/21 08:25:23;;;;;;;25.73;15.98;;;9.60;99.90;;;;;;4970507;28;20045;-76
2024/03/21 08:27:48;;;;;;;24.23;13.93;;;9.60;99.90;;;;;;4987637;28;20045;-77
2024/03/21 08:30:14;;;;;;;20.63;13.32;;;9.70;99.90;;;;;;4987374;28;20035;-77
2024/03/21 08:32:40;;;;;;;23.73;13.45;;;9.60;99.90;;;;;;4970346;28;20088;-77
2024/03/21 08:35:06;;;;;;;19.90;12.02;;;9.70;99.90;;;;;;4970413;28;20019;-76
2024/03/21 08:37:32;;;;;;;23.00;13.77;;;9.70;99.90;;;;;;4970382;28;20023;-77
2024/03/21 08:39:58;;;;;;;26.92;14.80;;;9.60;99.90;;;;;;4950954;29;20059;-77
2024/03/21 08:42:24;;;;;;;24.02;14.30;;;9.70;99.90;;;;;;4966906;29;20027;-76
2024/03/21 08:44:54;;;;;;;23.15;13.25;;;9.80;99.90;;;;;;4966496;29;20106;-77
2024/03/21 08:47:20;;;;;;;25.10;14.05;;;10.00;99.90;;;;;;4966498;29;20039;-77
2024/03/21 08:49:46;;;;;;;21.13;13.07;;;10.00;99.90;;;;;;4967920;29;20027;-77
2024/03/21 08:52:12;;;;;;;24.52;13.15;;;10.10;99.90;;;;;;4969810;28;20076;-77
2024/03/21 08:54:37;;;;;;;17.95;11.15;;;10.20;99.90;;;;;;4970417;28;20030;-76
2024/03/21 08:57:03;;;;;;;27.00;14.70;;;10.40;99.90;;;;;;4969749;28;20110;-76
2024/03/21 08:59:29;;;;;;;21.02;12.57;;;10.70;99.90;;;;;;4954027;28;20034;-77
2024/03/21 09:01:55;;;;;;;20.48;11.13;;;10.80;99.90;;;;;;4937829;28;20132;-76
2024/03/21 09:04:20;;;;;;;19.58;11.95;;;10.70;99.90;;;;;;4969715;28;20164;-76
2024/03/21 09:06:46;;;;;;;17.42;9.65;;;10.70;99.90;;;;;;4969864;28;20050;-76
2024/03/21 09:09:12;;;;;;;16.95;10.02;;;10.60;99.90;;;;;;4970142;28;20084;-76
2024/03/21 09:11:38;;;;;;;21.42;10.80;;;10.60;99.90;;;;;;4954116;28;20026;-76
2024/03/21 09:14:03;;;;;;;17.77;10.38;;;10.70;99.90;;;;;;4938030;28;20023;-77
2024/03/21 09:16:29;;;;;;;20.65;9.93;;;10.80;99.90;;;;;;4953769;28;20280;-76
2024/03/21 09:18:55;;;;;;;15.35;9.70;;;10.90;99.90;;;;;;4969495;28;20045;-77
2024/03/21 09:21:21;;;;;;;19.63;11.20;;;11.10;99.90;;;;;;4986818;28;20187;-76
2024/03/21 09:23:46;;;;;;;16.90;9.00;;;11.20;99.90;;;;;;4969576;28;20045;-76
2024/03/21 09:26:12;;;;;;;20.15;9.55;;;11.40;99.90;;;;;;4969501;28;20058;-76
2024/03/21 09:28:39;;;;;;;15.57;9.07;;;11.30;99.90;;;;;;4969574;28;20335;-76
2024/03/21 09:31:05;;;;;;;16.30;9.45;;;11.30;99.90;;;;;;4969341;28;20101;-77
2024/03/21 09:33:32;;;;;;;15.23;8.82;;;11.30;99.90;;;;;;4953695;28;20255;-77
2024/03/21 09:36:03;;;;;;;18.38;9.65;;;11.30;99.90;;;;;;4969352;28;20026;-76
2024/03/21 09:38:28;;;;;;;17.45;9.00;;;11.40;99.90;;;;;;4954109;28;20037;-76
2024/03/21 09:40:56;;;;;;;14.68;8.77;;;11.30;99.90;;;;;;4937356;28;20043;-76
2024/03/21 09:43:22;;;;;;;17.63;9.35;;;11.40;99.90;;;;;;4953405;28;20280;-76
2024/03/21 09:45:49;;;;;;;14.63;9.02;;;11.40;99.90;;;;;;4970726;28;20041;-76
2024/03/21 09:48:15;;;;;;;15.02;8.32;;;11.40;99.90;;;;;;4937633;28;20034;-77
2024/03/21 09:50:42;;;;;;;18.13;9.07;;;11.30;99.90;;;;;;4953067;28;20022;-77
2024/03/21 09:53:16;;;;;;;14.15;7.43;;;11.40;99.90;;;;;;4953412;28;20034;-77
2024/03/21 09:55:44;;;;;;;13.32;8.10;;;11.40;99.90;;;;;;4953487;28;20038;-76
2024/03/21 09:58:14;;;;;;;17.17;8.93;;;11.40;99.90;;;;;;4953551;28;20155;-76
2024/03/21 10:00:41;;;;;;;17.02;9.20;;;11.20;99.90;;;;;;4953100;28;20027;-76
2024/03/21 10:03:15;;;;;;;15.48;8.32;;;11.30;99.90;;;;;;4953545;28;20106;-76
2024/03/21 10:05:47;;;;;;;17.60;9.80;;;11.20;99.90;;;;;;4957495;28;20031;-75
2024/03/21 10:08:16;;;;;;;14.48;8.13;;;11.10;99.90;;;;;;4958064;28;20090;-77
2024/03/21 10:10:43;;;;;;;16.85;6.72;;;11.10;99.90;;;;;;4973205;28;20027;-76
2024/03/21 10:13:10;;;;;;;15.32;7.20;;;11.10;99.90;;;;;;4957154;28;20089;-76
2024/03/21 10:15:38;;;;;;;13.57;6.50;;;11.10;99.90;;;;;;4941385;28;20030;-76
2024/03/21 10:18:04;;;;;;;18.02;10.13;;;11.00;99.90;;;;;;4973091;28;20026;-76
2024/03/21 10:20:30;;;;;;;13.10;7.28;;;11.00;99.90;;;;;;4972786;28;20057;-76
2024/03/21 10:22:56;;;;;;;18.33;8.02;;;10.90;99.90;;;;;;4941075;28;20034;-78
2024/03/21 10:25:22;;;;;;;18.58;8.32;;;10.90;99.90;;;;;;4957346;28;20164;-78
2024/03/21 10:27:48;;;;;;;16.50;9.02;;;11.00;99.90;;;;;;4989776;28;20057;-75
2024/03/21 10:30:20;;;;;;;13.05;6.90;;;10.90;99.90;;;;;;4956817;28;20195;-76
2024/03/21 10:32:46;;;;;;;16.92;8.27;;;10.90;99.90;;;;;;4972785;28;20245;-77
2024/03/21 10:35:15;;;;;;;18.83;8.68;;;10.90;99.90;;;;;;4957064;28;20022;-76
2024/03/21 10:37:41;;;;;;;17.40;7.85;;;10.80;99.90;;;;;;4957030;28;20027;-75
2024/03/21 10:40:09;;;;;;;20.23;9.73;;;10.80;99.90;;;;;;4956469;28;20051;-75
2024/03/21 10:42:37;;;;;;;17.88;8.13;;;10.70;99.90;;;;;;4956499;28;20101;-76
2024/03/21 10:45:06;;;;;;;14.88;7.90;;;10.70;99.90;;;;;;4940526;28;20252;-77
2024/03/21 10:47:32;;;;;;;16.23;7.57;;;10.70;99.90;;;;;;4956771;28;20211;-75
2024/03/21 10:49:58;;;;;;;17.63;8.95;;;10.70;99.90;;;;;;4956378;28;20284;-76
2024/03/21 10:52:24;;;;;;;14.13;8.60;;;10.80;99.90;;;;;;4956222;28;20396;-75
2024/03/21 10:54:50;;;;;;;17.63;8.35;;;10.90;99.90;;;;;;4989371;28;20320;-76
2024/03/21 10:57:22;;;;;;;14.93;8.23;;;10.90;99.90;;;;;;4972210;28;20191;-76
2024/03/21 10:59:58;;;;;;;15.65;8.38;;;10.90;99.90;;;;;;4988841;28;20034;-75
2024/03/21 11:02:27;;;;;;;17.08;7.70;;;10.90;99.90;;;;;;4972017;28;20035;-76
2024/03/21 11:04:54;;;;;;;14.65;8.07;;;10.90;99.90;;;;;;4989085;28;20065;-76
2024/03/21 11:07:20;;;;;;;17.60;9.23;;;10.90;99.90;;;;;;4940375;28;20031;-75
2024/03/21 11:09:47;;;;;;;15.80;8.45;;;10.90;99.90;;;;;;4955854;28;20037;-76
2024/03/21 11:12:13;;;;;;;18.63;10.02;;;10.90;99.90;;;;;;4955953;28;20305;-75
2024/03/21 11:14:40;;;;;;;15.10;8.05;;;10.90;99.90;;;;;;4989001;28;20025;-75
2024/03/21 11:17:06;;;;;;;19.38;9.73;;;10.80;99.90;;;;;;4955923;28;20062;-74
2024/03/21 11:19:32;;;;;;;21.13;11.85;;;10.80;99.90;;;;;;4939641;28;20066;-75
2024/03/21 11:21:58;;;;;;;18.77;9.95;;;10.90;99.90;;;;;;4955566;28;20110;-75
2024/03/21 11:24:23;;;;;;;21.45;11.05;;;11.00;99.90;;;;;;4971694;28;20031;-75
2024/03/21 11:26:49;;;;;;;17.15;7.78;;;11.00;99.90;;;;;;4971564;28;20165;-76
2024/03/21 11:29:15;;;;;;;18.35;9.73;;;11.00;99.90;;;;;;4971516;28;20318;-76
2024/03/21 11:31:41;;;;;;;19.65;8.98;;;10.90;99.90;;;;;;4971773;28;20284;-76
2024/03/21 11:34:07;;;;;;;54.10;34.63;;;10.90;99.90;;;;;;4939813;28;20050;-75
2024/03/21 11:36:33;;;;;;;14.90;8.07;;;10.90;99.90;;;;;;4955312;28;20019;-75
2024/03/21 11:38:59;;;;;;;22.17;9.52;;;10.80;99.90;;;;;;4971312;28;20035;-76
2024/03/21 11:41:25;;;;;;;23.38;10.85;;;10.80;99.90;;;;;;4955117;28;20055;-75
2024/03/21 11:43:54;;;;;;;18.15;8.65;;;10.90;99.90;;;;;;4988415;28;20027;-76
2024/03/21 11:46:20;;;;;;;16.13;7.93;;;10.90;99.90;;;;;;4988162;28;20087;-76
2024/03/21 11:49:05;;;;;;;14.55;7.90;;;10.80;99.90;;;;;;4955299;28;20046;-75
2024/03/21 11:51:31;;;;;;;20.45;8.38;;;10.80;99.90;;;;;;4955113;28;20299;-75
2024/03/21 11:53:59;;;;;;;16.05;7.13;;;10.80;99.90;;;;;;4955292;28;20166;-77
2024/03/21 11:56:25;;;;;;;16.98;6.28;;;10.70;99.90;;;;;;4955816;28;20145;-76
2024/03/21 11:58:53;;;;;;;19.70;8.45;;;10.70;99.90;;;;;;4987761;28;20050;-76
2024/03/21 12:01:19;;;;;;;13.52;6.97;;;10.80;99.90;;;;;;4955087;28;20030;-76
2024/03/21 12:03:44;;;;;;;18.15;6.97;;;10.80;99.90;;;;;;4954845;28;20272;-74
2024/03/21 12:06:10;;;;;;;13.95;6.00;;;10.90;99.90;;;;;;4970922;28;20030;-75
2024/03/21 12:08:36;;;;;;;18.48;7.25;;;10.90;99.90;;;;;;4970750;28;20058;-75
2024/03/21 12:11:02;;;;;;;19.92;7.60;;;10.90;99.90;;;;;;4954597;28;20023;-75
2024/03/21 12:13:28;;;;;;;19.17;8.25;;;10.90;99.90;;;;;;4955134;28;20029;-75
2024/03/21 12:15:54;;;;;;;18.75;8.73;;;11.00;99.90;;;;;;4970295;28;20054;-75
2024/03/21 12:18:20;;;;;;;16.98;8.43;;;11.10;99.90;;;;;;4970664;28;20019;-75
2024/03/21 12:20:47;;;;;;;17.00;8.05;;;11.10;99.90;;;;;;4954533;28;20022;-76
2024/03/21 12:23:12;;;;;;;21.02;8.20;;;11.20;99.90;;;;;;4938615;28;20113;-76
2024/03/21 12:25:38;;;;;;;18.27;8.05;;;11.30;99.90;;;;;;4987643;28;20023;-76
2024/03/21 12:28:04;;;;;;;17.38;7.32;;;11.30;99.90;;;;;;4987193;28;20033;-75
2024/03/21 12:30:31;;;;;;;9.95;5.90;;;11.20;99.90;;;;;;4938305;28;20042;-76
2024/03/21 12:32:57;;;;;;;18.95;8.43;;;11.20;99.90;;;;;;4954430;28;20018;-76
2024/03/21 12:35:24;;;;;;;17.42;6.93;;;11.30;99.90;;;;;;4987149;28;20026;-76
2024/03/21 12:37:56;;;;;;;19.63;8.23;;;11.30;99.90;;;;;;4970582;28;20196;-76
2024/03/21 12:40:22;;;;;;;12.70;6.78;;;11.30;99.90;;;;;;4940493;28;20174;-76
2024/03/21 12:42:48;;;;;;;16.35;6.88;;;11.30;99.90;;;;;;4987353;28;20046;-76
2024/03/21 12:45:14;;;;;;;16.80;8.30;;;11.30;99.90;;;;;;4970160;28;20044;-76
2024/03/21 12:47:40;;;;;;;22.13;9.43;;;11.30;99.90;;;;;;4970165;28;20026;-76